createdAt,value
2023-01-29T00:01:05.366Z,27
2023-01-29T00:16:04.849Z,23
2023-01-29T00:31:05.017Z,27
2023-01-29T00:46:05.460Z,23
2023-01-29T01:01:05.640Z,27
2023-01-29T01:16:05.706Z,17
2023-01-29T01:31:04.954Z,20
2023-01-29T01:46:05.459Z,16
2023-01-29T02:01:05.877Z,17
2023-01-29T02:16:05.377Z,18
2023-01-29T02:31:05.692Z,14
2023-01-29T02:46:05.223Z,15
2023-01-29T03:01:05.902Z,13
2023-01-29T03:16:05.580Z,16
2023-01-29T03:31:04.932Z,13
2023-01-29T03:46:05.357Z,13
2023-01-29T04:01:05.495Z,11
2023-01-29T04:16:05.830Z,11
2023-01-29T04:31:05.359Z,11
2023-01-29T04:46:05.836Z,11
2023-01-29T05:01:04.970Z,12
2023-01-29T05:16:05.266Z,13
2023-01-29T05:31:05.808Z,20
2023-01-29T05:46:05.191Z,16
2023-01-29T06:01:04.729Z,20
2023-01-29T06:16:05.202Z,23
2023-01-29T06:31:36.521Z,24
2023-01-29T06:46:05.808Z,21
2023-01-29T07:01:05.160Z,24
2023-01-29T07:16:05.186Z,29
2023-01-29T07:31:05.647Z,38
2023-01-29T07:46:05.745Z,45
2023-01-29T08:01:05.894Z,28
2023-01-29T08:16:05.798Z,25
2023-01-29T08:31:05.885Z,34
2023-01-29T08:46:05.985Z,24
2023-01-29T09:01:05.699Z,33
2023-01-29T09:16:05.692Z,24
2023-01-29T09:31:06.032Z,20
2023-01-29T09:46:05.321Z,37
2023-01-29T10:01:06.005Z,34
2023-01-29T10:16:05.135Z,41
2023-01-29T10:31:05.763Z,43
2023-01-29T10:46:05.871Z,29
2023-01-29T11:01:05.365Z,78
2023-01-29T11:16:05.839Z,94
2023-01-29T11:31:05.246Z,44
2023-01-29T11:46:06.124Z,40
2023-01-29T12:01:05.699Z,32
2023-01-29T12:16:05.356Z,32
2023-01-29T12:31:05.245Z,46
2023-01-29T12:46:05.934Z,21
2023-01-29T13:01:05.497Z,26
2023-01-29T13:16:06.004Z,25
2023-01-29T13:31:04.995Z,38
2023-01-29T13:46:05.397Z,33
2023-01-29T14:01:05.517Z,38
2023-01-29T14:16:04.915Z,38
2023-01-29T14:31:05.539Z,42
2023-01-29T14:46:05.619Z,35
2023-01-29T15:01:05.549Z,25
2023-01-29T15:16:05.300Z,30
2023-01-29T15:31:05.376Z,37
2023-01-29T15:46:05.669Z,45
2023-01-29T16:01:04.901Z,44
2023-01-29T16:16:05.360Z,54
2023-01-29T16:31:05.776Z,49
2023-01-29T16:46:05.401Z,60
2023-01-29T17:01:05.724Z,48
2023-01-29T17:16:04.742Z,69
2023-01-29T17:31:07.428Z,61
2023-01-29T17:46:05.644Z,55
2023-01-29T18:01:05.782Z,59
2023-01-29T18:16:05.669Z,54
2023-01-29T18:31:06.013Z,65
2023-01-29T18:46:05.420Z,83
2023-01-29T19:01:04.831Z,74
2023-01-29T19:16:05.155Z,70
2023-01-29T19:31:05.780Z,69
2023-01-29T19:46:05.121Z,62
2023-01-29T20:01:05.572Z,57
2023-01-29T20:16:05.893Z,59
2023-01-29T20:31:05.371Z,61
2023-01-29T20:46:05.927Z,59
2023-01-29T21:01:05.140Z,57
2023-01-29T21:16:05.523Z,71
2023-01-29T21:31:04.786Z,88
2023-01-29T21:46:05.057Z,80
2023-01-29T22:01:38.653Z,78
2023-01-29T22:16:05.261Z,75
2023-01-29T22:31:05.836Z,68
2023-01-29T22:46:05.231Z,56
2023-01-29T23:01:05.314Z,59
2023-01-29T23:16:05.891Z,61
2023-01-29T23:31:05.267Z,65
2023-01-29T23:46:05.837Z,66
